createdAt,value
2023-11-04T00:00:00.064Z,967.91
2023-11-04T00:01:11.515Z,967.9
2023-11-04T00:02:03.548Z,967.93
2023-11-04T00:03:05.340Z,967.91
2023-11-04T00:04:07.053Z,967.95
2023-11-04T00:05:08.886Z,967.96
2023-11-04T00:06:10.447Z,967.95
2023-11-04T00:07:12.199Z,967.9
2023-11-04T00:08:13.928Z,967.95
2023-11-04T00:09:19.595Z,967.87
2023-11-04T00:10:17.894Z,967.92
2023-11-04T00:11:19.347Z,967.91
2023-11-04T00:12:20.914Z,967.9
2023-11-04T00:13:22.612Z,967.89
2023-11-04T00:14:24.311Z,967.91
2023-11-04T00:15:26.119Z,967.89
2023-11-04T00:16:27.843Z,967.93
2023-11-04T00:17:29.549Z,967.92
2023-11-04T00:18:31.421Z,967.95
2023-11-04T00:19:32.993Z,967.94
2023-11-04T00:20:43.113Z,967.96
2023-11-04T00:21:36.484Z,967.96
2023-11-04T00:22:38.181Z,967.98
2023-11-04T00:23:39.927Z,967.98
2023-11-04T00:24:41.686Z,967.97
2023-11-04T00:25:43.379Z,967.89
2023-11-04T00:26:45.110Z,967.91
2023-11-04T00:27:46.892Z,967.9
2023-11-04T00:28:48.676Z,967.92
2023-11-04T00:29:50.314Z,967.88
2023-11-04T00:30:52.094Z,967.92
2023-11-04T00:31:53.905Z,967.92
2023-11-04T00:32:55.589Z,967.91
2023-11-04T00:33:57.314Z,967.93
2023-11-04T00:34:58.953Z,967.87
2023-11-04T00:36:00.689Z,967.86
2023-11-04T00:48:02.176Z,967.79
2023-11-04T00:49:04.092Z,967.8
2023-11-04T00:50:14.710Z,967.82
2023-11-04T00:51:07.373Z,967.81
2023-11-04T00:52:09.094Z,967.78
2023-11-04T00:53:10.793Z,967.81
2023-11-04T00:54:12.580Z,967.79
2023-11-04T00:55:14.321Z,967.83
2023-11-04T00:56:16.043Z,967.79
2023-11-04T00:57:17.777Z,967.75
2023-11-04T00:58:19.499Z,967.74
2023-11-04T00:59:21.222Z,967.74
2023-11-04T01:00:22.983Z,967.75
2023-11-04T01:01:24.685Z,967.75
2023-11-04T01:02:26.445Z,967.76
2023-11-04T01:03:28.288Z,967.74
2023-11-04T01:04:30.055Z,967.72
2023-11-04T01:05:31.781Z,967.75
2023-11-04T01:06:33.379Z,967.75
2023-11-04T01:07:35.090Z,967.74
2023-11-04T01:08:36.856Z,967.71
2023-11-04T01:09:38.867Z,967.79
2023-11-04T01:10:40.313Z,967.75
2023-11-04T01:11:42.016Z,967.72
2023-11-04T01:12:43.800Z,967.72
2023-11-04T01:13:45.530Z,967.74
2023-11-04T01:14:47.255Z,967.79
2023-11-04T01:15:48.958Z,967.72
2023-11-04T01:16:50.710Z,967.69
2023-11-04T01:17:52.415Z,967.66
2023-11-04T01:18:54.160Z,967.69
2023-11-04T01:19:55.895Z,967.68
2023-11-04T01:20:57.593Z,967.66
2023-11-04T01:21:59.334Z,967.66
2023-11-04T01:23:01.082Z,967.67
2023-11-04T01:24:02.789Z,967.6
2023-11-04T01:25:04.526Z,967.69
2023-11-04T01:26:06.262Z,967.73
2023-11-04T01:27:07.999Z,967.67
2023-11-04T01:28:09.728Z,967.64
2023-11-04T01:29:11.451Z,967.68
2023-11-04T01:30:13.202Z,967.66
2023-11-04T01:31:14.924Z,967.64
2023-11-04T01:32:16.665Z,967.7
2023-11-04T01:33:18.775Z,967.65
2023-11-04T01:34:20.418Z,967.62
2023-11-04T01:35:21.886Z,967.55
2023-11-04T01:36:23.625Z,967.5
2023-11-04T01:37:25.307Z,967.57
2023-11-04T01:38:27.054Z,967.57
2023-11-04T01:39:28.807Z,967.56
2023-11-04T01:40:30.511Z,967.62
2023-11-04T01:41:32.265Z,967.59
2023-11-04T01:42:33.993Z,967.59
2023-11-04T01:43:35.778Z,967.49
2023-11-04T01:44:37.484Z,967.46
2023-11-04T01:45:39.218Z,967.5
2023-11-04T01:46:40.909Z,967.48
2023-11-04T01:47:42.740Z,967.47
2023-11-04T01:48:44.739Z,967.56
2023-11-04T01:49:46.090Z,967.51
2023-11-04T01:50:47.849Z,967.56
2023-11-04T01:51:49.632Z,967.53
2023-11-04T01:52:51.398Z,967.49
2023-11-04T01:53:53.098Z,967.44
2023-11-04T01:54:54.792Z,967.44
2023-11-04T01:55:56.511Z,967.43
2023-11-04T01:56:58.261Z,967.41
2023-11-04T01:57:59.974Z,967.39
2023-11-04T01:59:01.715Z,967.35
2023-11-04T02:00:03.454Z,967.35
2023-11-04T02:01:05.173Z,967.31
2023-11-04T02:02:06.917Z,967.31
2023-11-04T02:03:08.627Z,967.3
2023-11-04T02:04:10.518Z,967.31
2023-11-04T02:05:12.137Z,967.27
2023-11-04T02:06:13.910Z,967.3
2023-11-04T02:07:15.607Z,967.26
2023-11-04T02:08:17.308Z,967.29
2023-11-04T02:09:19.070Z,967.27
2023-11-04T02:10:20.818Z,967.29
2023-11-04T02:11:22.522Z,967.24
2023-11-04T02:12:24.262Z,967.27
2023-11-04T02:13:27.272Z,967.24
2023-11-04T02:22:55.844Z,967.16
2023-11-04T02:25:14.221Z,967.2
2023-11-04T02:27:00.599Z,967.26
2023-11-04T02:28:33.022Z,967.26
2023-11-04T02:29:34.770Z,967.23
2023-11-04T02:30:36.572Z,967.22
2023-11-04T02:31:38.254Z,967.25
2023-11-04T02:32:40.045Z,967.25
2023-11-04T02:33:41.800Z,967.23
2023-11-04T02:34:43.514Z,967.18
2023-11-04T02:35:45.199Z,967.19
2023-11-04T02:36:46.962Z,967.2
2023-11-04T02:37:48.627Z,967.16
2023-11-04T02:38:50.357Z,967.19
2023-11-04T02:39:52.140Z,967.19
2023-11-04T02:40:53.904Z,967.17
2023-11-04T02:41:55.584Z,967.17
2023-11-04T02:42:57.339Z,967.17
2023-11-04T02:43:59.030Z,967.14
2023-11-04T02:45:00.781Z,967.16
2023-11-04T02:46:02.483Z,967.1
2023-11-04T02:47:04.227Z,967.12
2023-11-04T02:48:06.032Z,967.13
2023-11-04T02:49:07.739Z,967.1
2023-11-04T02:50:09.414Z,967.1
2023-11-04T02:51:11.183Z,967.14
2023-11-04T02:52:12.943Z,967.1
2023-11-04T02:53:14.622Z,967.15
2023-11-04T02:54:16.391Z,967.11
2023-11-04T02:55:18.104Z,967.09
2023-11-04T02:56:19.817Z,967.11
2023-11-04T02:57:21.666Z,967.1
2023-11-04T02:58:23.293Z,967.16
2023-11-04T02:59:25.008Z,967.11
2023-11-04T03:00:26.797Z,967.15
2023-11-04T03:01:28.487Z,967.1
2023-11-04T03:02:30.230Z,967.08
2023-11-04T03:03:32.054Z,967.07
2023-11-04T03:04:33.878Z,967.05
2023-11-04T03:05:37.898Z,967.1
2023-11-04T03:06:37.225Z,967.08
2023-11-04T03:07:38.916Z,967.02
2023-11-04T03:08:40.659Z,967.05
2023-11-04T03:09:42.584Z,967.05
2023-11-04T03:10:44.075Z,967.07
2023-11-04T03:11:45.835Z,967.04
2023-11-04T03:12:47.636Z,967.05
2023-11-04T03:13:49.198Z,967.02
2023-11-04T03:14:50.902Z,967.04
2023-11-04T03:15:52.689Z,967.07
2023-11-04T03:16:54.401Z,967.05
2023-11-04T03:17:56.199Z,967.05
2023-11-04T03:18:58.024Z,967.06
2023-11-04T03:19:59.565Z,967.08
2023-11-04T03:21:01.294Z,967.05
2023-11-04T03:22:03.029Z,967.07
2023-11-04T03:23:04.776Z,967.1
2023-11-04T03:24:06.508Z,967.05
2023-11-04T03:25:08.310Z,967.12
2023-11-04T03:26:09.973Z,967.05
2023-11-04T03:27:11.703Z,967.09
2023-11-04T03:28:13.446Z,967.03
2023-11-04T03:29:15.148Z,967.05
2023-11-04T03:30:16.898Z,967.05
2023-11-04T03:31:18.755Z,967.06
2023-11-04T03:32:20.364Z,967.03
2023-11-04T03:33:22.141Z,966.98
2023-11-04T03:34:23.949Z,967.02
2023-11-04T03:35:25.542Z,967.02
2023-11-04T03:36:27.312Z,966.97
2023-11-04T03:37:29.039Z,966.97
2023-11-04T03:38:30.735Z,966.96
2023-11-04T03:39:32.501Z,966.97
2023-11-04T03:40:34.218Z,966.96
2023-11-04T03:41:35.953Z,966.93
2023-11-04T03:42:37.723Z,966.85
2023-11-04T03:43:39.437Z,966.84
2023-11-04T03:44:41.160Z,966.8
2023-11-04T03:45:42.975Z,966.78
2023-11-04T03:46:44.621Z,966.84
2023-11-04T03:47:46.584Z,966.76
2023-11-04T03:48:48.257Z,966.75
2023-11-04T03:49:49.898Z,966.76
2023-11-04T03:50:51.551Z,966.74
2023-11-04T03:51:53.326Z,966.67
2023-11-04T03:52:55.018Z,966.69
2023-11-04T03:53:56.820Z,966.68
2023-11-04T03:54:58.516Z,966.7
2023-11-04T03:56:00.289Z,966.61
2023-11-04T03:57:01.959Z,966.61
2023-11-04T03:58:03.673Z,966.67
2023-11-04T03:59:05.412Z,966.68
2023-11-04T04:00:07.174Z,966.69
2023-11-04T04:01:08.889Z,966.67
2023-11-04T04:02:10.594Z,966.64
2023-11-04T04:03:12.433Z,966.59
2023-11-04T04:04:14.135Z,966.63
2023-11-04T04:05:15.859Z,966.61
2023-11-04T04:06:17.549Z,966.58
2023-11-04T04:07:19.296Z,966.6
2023-11-04T04:08:20.979Z,966.59
2023-11-04T04:09:22.755Z,966.53
2023-11-04T04:10:24.454Z,966.55
2023-11-04T04:11:26.245Z,966.42
2023-11-04T04:12:27.989Z,966.44
2023-11-04T04:13:29.690Z,966.45
2023-11-04T04:14:31.402Z,966.41
2023-11-04T04:15:33.257Z,966.39
2023-11-04T04:16:34.923Z,966.41
2023-11-04T04:17:36.702Z,966.44
2023-11-04T04:18:38.400Z,966.35
2023-11-04T04:19:40.076Z,966.35
2023-11-04T04:20:41.799Z,966.36
2023-11-04T04:21:43.604Z,966.34
2023-11-04T04:22:45.260Z,966.33
2023-11-04T04:23:46.994Z,966.33
2023-11-04T04:24:48.843Z,966.31
2023-11-04T04:25:50.445Z,966.34
2023-11-04T04:26:52.202Z,966.32
2023-11-04T04:27:54.017Z,966.36
2023-11-04T04:28:55.667Z,966.32
2023-11-04T04:29:57.402Z,966.19
2023-11-04T04:30:59.205Z,966.34
2023-11-04T04:32:01.985Z,966.35
2023-11-04T04:33:02.659Z,966.34
2023-11-04T04:34:04.372Z,966.29
2023-11-04T04:35:06.113Z,966.34
2023-11-04T04:36:07.803Z,966.34
2023-11-04T04:37:09.524Z,966.28
2023-11-04T04:38:11.304Z,966.24
2023-11-04T04:39:13.002Z,966.19
2023-11-04T04:40:14.740Z,966.18
2023-11-04T04:41:16.468Z,966.15
2023-11-04T04:42:18.199Z,966.15
2023-11-04T04:43:20.032Z,966.16
2023-11-04T04:44:21.663Z,966.13
2023-11-04T04:45:23.419Z,966.2
2023-11-04T04:46:25.113Z,966.18
2023-11-04T04:47:26.871Z,966.19
2023-11-04T04:48:28.661Z,966.19
2023-11-04T04:49:30.406Z,966.12
2023-11-04T04:50:32.049Z,966.17
2023-11-04T04:51:33.823Z,966.21
2023-11-04T04:52:35.555Z,966.22
2023-11-04T04:53:37.379Z,966.17
2023-11-04T04:54:39.056Z,966.17
2023-11-04T04:55:40.732Z,966.14
2023-11-04T04:56:42.463Z,966.13
2023-11-04T04:57:44.223Z,966.19
2023-11-04T04:58:45.899Z,966.16
2023-11-04T04:59:47.608Z,966.18
2023-11-04T05:00:49.485Z,966.17
2023-11-04T05:01:51.171Z,966.18
2023-11-04T05:02:52.892Z,966.16
2023-11-04T05:03:54.791Z,966.15
2023-11-04T05:04:56.313Z,966.11
2023-11-04T05:05:58.049Z,966.07
2023-11-04T05:07:01.259Z,966.05
2023-11-04T05:08:01.491Z,966.01
2023-11-04T05:09:03.328Z,965.99
2023-11-04T05:10:04.953Z,965.95
2023-11-04T05:11:08.055Z,965.97
2023-11-04T05:12:08.434Z,965.95
2023-11-04T05:13:10.163Z,965.93
2023-11-04T05:14:11.936Z,965.96
2023-11-04T05:15:13.645Z,965.9
2023-11-04T05:16:15.339Z,965.81
2023-11-04T05:17:17.081Z,965.9
2023-11-04T05:18:19.019Z,965.89
2023-11-04T05:19:20.688Z,965.86
2023-11-04T05:20:22.334Z,965.79
2023-11-04T05:21:24.167Z,965.9
2023-11-04T05:22:25.811Z,965.88
2023-11-04T05:23:28.576Z,965.87
2023-11-04T05:24:29.236Z,965.87
2023-11-04T05:25:30.922Z,965.85
2023-11-04T05:26:32.682Z,965.82
2023-11-04T05:27:34.469Z,965.8
2023-11-04T05:28:36.153Z,965.8
2023-11-04T05:29:37.869Z,965.79
2023-11-04T05:30:39.665Z,965.81
2023-11-04T05:31:41.330Z,965.75
2023-11-04T05:32:43.138Z,965.78
2023-11-04T05:33:44.902Z,965.79
2023-11-04T05:34:46.676Z,965.79
2023-11-04T05:35:48.267Z,965.75
2023-11-04T05:36:50.082Z,965.71
2023-11-04T05:37:51.794Z,965.67
2023-11-04T05:38:57.681Z,965.66
2023-11-04T05:40:00.421Z,965.68
2023-11-04T05:41:02.123Z,965.64
2023-11-04T05:42:03.845Z,965.64
2023-11-04T05:43:05.574Z,965.68
2023-11-04T05:44:07.262Z,965.69
2023-11-04T05:45:09.016Z,965.66
2023-11-04T05:46:10.747Z,965.65
2023-11-04T05:47:12.479Z,965.6
2023-11-04T05:48:14.233Z,965.57
2023-11-04T05:49:15.981Z,965.57
2023-11-04T05:50:17.653Z,965.56
2023-11-04T05:51:19.396Z,965.46
2023-11-04T05:52:21.139Z,965.51
2023-11-04T05:53:25.357Z,965.5
2023-11-04T05:54:29.824Z,965.48
2023-11-04T05:55:31.482Z,965.52
2023-11-04T05:56:33.223Z,965.44
2023-11-04T05:57:35.003Z,965.47
2023-11-04T05:58:36.718Z,965.47
2023-11-04T05:59:38.458Z,965.44
2023-11-04T06:00:40.284Z,965.46
2023-11-04T06:01:41.873Z,965.51
2023-11-04T06:02:43.601Z,965.44
2023-11-04T06:03:45.530Z,965.45
2023-11-04T06:04:47.242Z,965.45
2023-11-04T06:05:48.791Z,965.44
2023-11-04T06:06:50.564Z,965.38
2023-11-04T06:07:52.248Z,965.35
2023-11-04T06:08:53.999Z,965.36
2023-11-04T06:09:55.802Z,965.37
2023-11-04T06:10:57.462Z,965.34
2023-11-04T06:11:59.171Z,965.3
2023-11-04T06:13:00.937Z,965.25
2023-11-04T06:14:02.652Z,965.21
2023-11-04T06:15:04.367Z,965.32
2023-11-04T06:16:06.100Z,965.29
2023-11-04T06:17:07.842Z,965.23
2023-11-04T06:18:09.624Z,965.21
2023-11-04T06:19:11.396Z,965.18
2023-11-04T06:20:13.054Z,965.16
2023-11-04T06:21:14.783Z,965.14
2023-11-04T06:22:16.513Z,965.15
2023-11-04T06:23:18.241Z,965.11
2023-11-04T06:24:20.097Z,965.06
2023-11-04T06:25:21.756Z,965.06
2023-11-04T06:26:23.449Z,965.09
2023-11-04T06:27:25.228Z,965.12
2023-11-04T06:28:26.961Z,965.07
2023-11-04T06:29:28.693Z,965.09
2023-11-04T06:30:30.407Z,965.1
2023-11-04T06:31:32.122Z,965.09
2023-11-04T06:32:33.872Z,965.15
2023-11-04T06:33:35.662Z,965.11
2023-11-04T06:34:37.340Z,965.09
2023-11-04T06:35:39.098Z,965.07
2023-11-04T06:36:40.795Z,965.1
2023-11-04T06:37:42.556Z,965.07
2023-11-04T06:38:44.244Z,965.12
2023-11-04T06:39:45.973Z,965.1
2023-11-04T06:40:47.695Z,965.06
2023-11-04T06:41:49.441Z,965.06
2023-11-04T06:42:51.205Z,964.99
2023-11-04T06:43:52.894Z,965
2023-11-04T06:44:54.683Z,964.97
2023-11-04T06:45:56.352Z,964.99
2023-11-04T06:46:58.177Z,964.97
2023-11-04T06:47:59.867Z,964.97
2023-11-04T06:49:01.650Z,964.93
2023-11-04T06:50:03.315Z,964.95
2023-11-04T06:51:05.025Z,964.97
2023-11-04T06:52:06.770Z,964.92
2023-11-04T06:53:08.483Z,965.01
2023-11-04T06:54:10.214Z,964.92
2023-11-04T06:55:11.973Z,964.97
2023-11-04T06:56:13.676Z,964.96
2023-11-04T06:57:15.408Z,964.93
2023-11-04T06:58:17.160Z,964.92
2023-11-04T06:59:18.927Z,964.89
2023-11-04T07:00:20.664Z,964.91
2023-11-04T07:01:22.346Z,964.85
2023-11-04T07:02:24.149Z,964.83
2023-11-04T07:03:25.962Z,964.89
2023-11-04T07:04:27.652Z,964.81
2023-11-04T07:05:29.297Z,964.86
2023-11-04T07:06:31.039Z,964.78
2023-11-04T07:07:32.754Z,964.79
2023-11-04T07:08:34.479Z,964.78
2023-11-04T07:09:36.284Z,964.81
2023-11-04T07:10:37.940Z,964.78
2023-11-04T07:11:39.694Z,964.75
2023-11-04T07:12:41.511Z,964.74
2023-11-04T07:13:43.192Z,964.74
2023-11-04T07:14:44.872Z,964.74
2023-11-04T07:15:46.680Z,964.73
2023-11-04T07:16:48.338Z,964.72
2023-11-04T07:17:50.127Z,964.68
2023-11-04T07:18:51.858Z,964.71
2023-11-04T07:19:55.383Z,964.7
2023-11-04T07:20:55.428Z,964.68
2023-11-04T07:21:57.049Z,964.67
2023-11-04T07:22:58.717Z,964.71
2023-11-04T07:24:00.474Z,964.67
2023-11-04T07:25:02.244Z,964.56
2023-11-04T07:26:03.933Z,964.63
2023-11-04T07:27:05.729Z,964.58
2023-11-04T07:28:07.410Z,964.6
2023-11-04T07:29:09.130Z,964.55
2023-11-04T07:30:10.870Z,964.51
2023-11-04T07:31:12.588Z,964.52
2023-11-04T07:32:14.328Z,964.56
2023-11-04T07:33:16.093Z,964.55
2023-11-04T07:34:17.895Z,964.58
2023-11-04T07:35:19.543Z,964.54
2023-11-04T07:36:21.247Z,964.54
2023-11-04T07:37:23.005Z,964.55
2023-11-04T07:38:24.717Z,964.57
2023-11-04T07:39:26.489Z,964.46
2023-11-04T07:40:28.200Z,964.55
2023-11-04T07:41:29.926Z,964.5
2023-11-04T07:42:31.663Z,964.5
2023-11-04T07:43:33.390Z,964.55
2023-11-04T07:44:35.119Z,964.51
2023-11-04T07:45:36.882Z,964.47
2023-11-04T07:46:38.591Z,964.48
2023-11-04T07:48:17.168Z,964.37
2023-11-04T07:49:21.336Z,964.38
2023-11-04T07:50:58.775Z,964.38
2023-11-04T07:52:00.541Z,964.32
2023-11-04T07:53:02.233Z,964.32
2023-11-04T07:54:03.940Z,964.34
2023-11-04T07:55:05.726Z,964.3
2023-11-04T07:56:07.421Z,964.3
2023-11-04T07:57:09.132Z,964.3
2023-11-04T07:58:10.895Z,964.31
2023-11-04T07:59:12.573Z,964.22
2023-11-04T08:00:14.312Z,964.24
2023-11-04T08:01:16.030Z,964.22
2023-11-04T08:02:17.749Z,964.19
2023-11-04T08:03:19.674Z,964.14
2023-11-04T08:04:21.334Z,964.11
2023-11-04T08:05:22.962Z,964.1
2023-11-04T08:06:24.668Z,964.12
2023-11-04T08:07:26.385Z,964.02
2023-11-04T08:08:28.107Z,964.07
2023-11-04T08:09:30.074Z,964.01
2023-11-04T08:10:31.538Z,964.04
2023-11-04T08:11:33.264Z,964.03
2023-11-04T08:12:35.108Z,964.02
2023-11-04T08:13:36.759Z,963.98
2023-11-04T08:14:38.485Z,963.98
2023-11-04T08:15:40.350Z,963.99
2023-11-04T08:16:41.962Z,964.02
2023-11-04T08:17:43.769Z,964.02
2023-11-04T08:18:45.494Z,964
2023-11-04T08:19:47.163Z,963.97
2023-11-04T08:20:48.831Z,963.95
2023-11-04T08:21:50.601Z,963.94
2023-11-04T08:22:53.881Z,963.94
2023-11-04T08:23:54.011Z,963.94
2023-11-04T08:24:55.831Z,963.95
2023-11-04T08:25:57.468Z,963.94
2023-11-04T08:26:59.337Z,963.92
2023-11-04T08:28:00.953Z,963.89
2023-11-04T08:29:02.689Z,963.81
2023-11-04T08:30:04.372Z,963.91
2023-11-04T08:31:08.556Z,963.92
2023-11-04T08:32:12.953Z,963.91
2023-11-04T08:33:14.844Z,963.88
2023-11-04T08:34:16.486Z,963.86
2023-11-04T08:35:18.133Z,963.87
2023-11-04T08:36:30.937Z,963.88
2023-11-04T08:37:32.563Z,963.9
2023-11-04T08:38:34.672Z,963.86
2023-11-04T08:39:35.907Z,963.91
2023-11-04T08:40:39.132Z,963.87
2023-11-04T08:41:39.510Z,963.91
2023-11-04T08:42:41.033Z,963.88
2023-11-04T08:43:42.999Z,963.89
2023-11-04T08:44:49.055Z,963.81
2023-11-04T08:45:51.575Z,963.78
2023-11-04T08:46:57.898Z,963.82
2023-11-04T08:48:04.148Z,963.76
2023-11-04T08:49:06.147Z,963.74
2023-11-04T08:50:08.195Z,963.71
2023-11-04T08:51:08.395Z,963.67
2023-11-04T08:52:19.760Z,963.6
2023-11-04T08:53:33.155Z,963.64
2023-11-04T08:54:38.107Z,963.55
2023-11-04T08:55:41.214Z,963.56
2023-11-04T08:56:42.680Z,963.54
2023-11-04T08:57:43.317Z,963.56
2023-11-04T08:58:45.040Z,963.55
2023-11-04T08:59:46.801Z,963.42
2023-11-04T09:01:09.993Z,963.4
2023-11-04T09:02:27.369Z,963.37
2023-11-04T09:03:30.488Z,963.37
2023-11-04T09:04:31.516Z,963.37
2023-11-04T09:05:35.591Z,963.33
2023-11-04T09:06:38.635Z,963.36
2023-11-04T09:07:42.589Z,963.3
2023-11-04T09:08:54.650Z,963.28
2023-11-04T09:09:57.513Z,963.26
2023-11-04T09:10:59.380Z,963.24
2023-11-04T09:11:59.650Z,963.21
2023-11-04T09:13:01.446Z,963.17
2023-11-04T09:14:04.454Z,963.15
2023-11-04T09:15:08.253Z,963.14
2023-11-04T09:16:17.690Z,963.06
2023-11-04T09:17:42.515Z,963.05
2023-11-04T09:19:11.743Z,963.02
2023-11-04T09:20:13.343Z,962.99
2023-11-04T09:21:16.465Z,962.96
2023-11-04T09:22:18.326Z,962.9
2023-11-04T09:23:28.065Z,962.92
2023-11-04T09:24:45.677Z,962.71
2023-11-04T09:26:28.472Z,962.84
2023-11-04T09:27:40.806Z,962.76
2023-11-04T09:28:42.294Z,962.75
2023-11-04T09:29:52.886Z,962.69
2023-11-04T09:31:08.711Z,962.69
2023-11-04T09:34:41.537Z,962.72
2023-11-04T09:35:43.025Z,962.66
2023-11-04T09:36:44.823Z,962.7
2023-11-04T09:37:46.499Z,962.66
2023-11-04T09:38:48.357Z,962.6
2023-11-04T09:39:49.930Z,962.57
2023-11-04T09:40:51.644Z,962.6
2023-11-04T09:41:53.437Z,962.55
2023-11-04T09:42:55.113Z,962.52
2023-11-04T09:43:56.941Z,962.49
2023-11-04T09:44:58.552Z,962.45
2023-11-04T09:46:00.335Z,962.51
2023-11-04T09:47:52.400Z,962.46
2023-11-04T09:48:55.349Z,962.43
2023-11-04T09:49:57.007Z,962.41
2023-11-04T09:50:58.714Z,962.42
2023-11-04T09:52:00.548Z,962.42
2023-11-04T09:53:02.181Z,962.37
2023-11-04T09:54:04.026Z,962.39
2023-11-04T09:55:05.700Z,962.37
2023-11-04T09:56:07.706Z,962.27
2023-11-04T09:57:09.109Z,962.24
2023-11-04T09:58:10.927Z,962.25
2023-11-04T09:59:12.602Z,962.22
2023-11-04T10:00:14.327Z,962.21
2023-11-04T10:01:16.066Z,962.12
2023-11-04T10:02:17.779Z,962.13
2023-11-04T10:03:19.573Z,962.12
2023-11-04T10:04:21.842Z,962.04
2023-11-04T10:05:23.136Z,962.08
2023-11-04T10:06:24.742Z,962.01
2023-11-04T10:07:26.447Z,961.98
2023-11-04T10:08:28.180Z,962.06
2023-11-04T10:09:32.842Z,962.03
2023-11-04T10:10:31.804Z,962
2023-11-04T10:11:33.401Z,962.03
2023-11-04T10:12:35.129Z,962
2023-11-04T10:13:36.850Z,961.97
2023-11-04T10:14:38.573Z,961.88
2023-11-04T10:15:40.628Z,961.84
2023-11-04T10:16:42.079Z,961.77
2023-11-04T10:17:43.839Z,961.74
2023-11-04T10:18:45.537Z,961.72
2023-11-04T10:19:47.260Z,961.62
2023-11-04T10:20:48.952Z,961.67
2023-11-04T10:21:51.810Z,961.65
2023-11-04T10:22:52.447Z,961.63
2023-11-04T10:23:54.195Z,961.5
2023-11-04T10:24:55.930Z,961.57
2023-11-04T10:25:57.652Z,961.51
2023-11-04T10:26:59.366Z,961.5
2023-11-04T10:28:01.123Z,961.43
2023-11-04T10:29:02.843Z,961.4
2023-11-04T10:30:04.572Z,961.34
2023-11-04T10:31:06.660Z,961.37
2023-11-04T10:32:08.029Z,961.39
2023-11-04T10:33:10.073Z,961.28
2023-11-04T10:34:11.635Z,961.29
2023-11-04T10:35:13.311Z,961.26
2023-11-04T10:36:15.001Z,961.26
2023-11-04T10:37:16.762Z,961.26
2023-11-04T10:38:18.515Z,961.22
2023-11-04T10:39:20.200Z,961.18
2023-11-04T10:40:21.918Z,961.16
2023-11-04T10:41:23.641Z,961.11
2023-11-04T10:42:25.384Z,961.11
2023-11-04T10:43:27.093Z,961.05
2023-11-04T10:44:28.833Z,961.08
2023-11-04T10:45:30.706Z,961.08
2023-11-04T10:46:32.486Z,961.12
2023-11-04T10:47:34.102Z,961.12
2023-11-04T10:48:35.863Z,961.07
2023-11-04T10:49:37.532Z,960.97
2023-11-04T10:50:39.255Z,960.9
2023-11-04T10:51:40.995Z,960.89
2023-11-04T10:52:42.676Z,960.86
2023-11-04T10:53:44.434Z,960.84
2023-11-04T10:54:46.181Z,960.79
2023-11-04T10:55:47.879Z,960.79
2023-11-04T10:56:49.639Z,960.73
2023-11-04T10:57:51.377Z,960.72
2023-11-04T10:58:53.093Z,960.7
2023-11-04T10:59:54.837Z,960.69
2023-11-04T11:00:56.569Z,960.69
2023-11-04T11:01:58.315Z,960.7
2023-11-04T11:03:00.103Z,960.66
2023-11-04T11:04:02.102Z,960.62
2023-11-04T11:05:03.564Z,960.57
2023-11-04T11:06:05.218Z,960.69
2023-11-04T11:07:07.009Z,960.64
2023-11-04T11:08:08.753Z,960.6
2023-11-04T11:09:10.433Z,960.58
2023-11-04T11:10:20.861Z,960.55
2023-11-04T11:11:23.393Z,960.55
2023-11-04T11:12:26.013Z,960.51
2023-11-04T11:13:33.538Z,960.51
2023-11-04T11:14:51.213Z,960.46
2023-11-04T11:15:52.950Z,960.45
2023-11-04T11:16:56.952Z,960.49
2023-11-04T11:18:01.576Z,960.43
2023-11-04T11:19:16.626Z,960.45
2023-11-04T11:20:17.301Z,960.39
2023-11-04T11:21:57.033Z,960.38
2023-11-04T11:24:14.496Z,960.22
2023-11-04T11:26:17.830Z,960.19
2023-11-04T11:29:09.917Z,960.17
2023-11-04T11:31:06.099Z,960.13
2023-11-04T11:33:36.641Z,960.14
2023-11-04T11:36:04.030Z,960.08
2023-11-04T11:38:41.287Z,960
2023-11-04T11:40:52.005Z,959.94
2023-11-04T11:41:47.269Z,959.86
2023-11-04T11:42:49.068Z,959.88
2023-11-04T11:43:50.725Z,959.82
2023-11-04T11:44:52.487Z,959.85
2023-11-04T11:45:54.293Z,959.76
2023-11-04T11:46:56.062Z,959.68
2023-11-04T11:47:57.659Z,959.66
2023-11-04T11:48:59.689Z,959.66
2023-11-04T11:50:01.146Z,959.62
2023-11-04T11:51:02.965Z,959.57
2023-11-04T11:52:04.743Z,959.55
2023-11-04T11:53:06.378Z,959.48
2023-11-04T11:54:08.055Z,959.42
2023-11-04T11:55:09.878Z,959.36
2023-11-04T11:56:11.585Z,959.27
2023-11-04T11:57:13.416Z,959.27
2023-11-04T11:58:15.017Z,959.28
2023-11-04T11:59:16.718Z,959.21
2023-11-04T12:00:18.449Z,959.18
2023-11-04T12:01:20.159Z,959.23
2023-11-04T12:02:21.897Z,959.19
2023-11-04T12:03:23.638Z,959.23
2023-11-04T12:04:25.438Z,959.19
2023-11-04T12:05:27.115Z,959.22
2023-11-04T12:06:28.857Z,959.15
2023-11-04T12:07:30.562Z,959.18
2023-11-04T12:08:32.402Z,959.17
2023-11-04T12:09:34.036Z,959.18
2023-11-04T12:10:35.840Z,959.11
2023-11-04T12:11:37.536Z,959.1
2023-11-04T12:12:39.426Z,959.06
2023-11-04T12:13:40.964Z,959.05
2023-11-04T12:14:42.696Z,958.96
2023-11-04T12:15:44.513Z,958.91
2023-11-04T12:16:46.184Z,958.84
2023-11-04T12:17:47.950Z,958.79
2023-11-04T12:18:49.814Z,958.8
2023-11-04T12:19:51.407Z,958.77
2023-11-04T12:20:53.108Z,958.76
2023-11-04T12:21:54.911Z,958.69
2023-11-04T12:22:56.594Z,958.68
2023-11-04T12:23:58.319Z,958.72
2023-11-04T12:25:00.151Z,958.84
2023-11-04T12:26:01.781Z,958.81
2023-11-04T12:27:03.544Z,958.82
2023-11-04T12:28:05.281Z,958.78
2023-11-04T12:29:07.113Z,958.76
2023-11-04T12:30:08.689Z,958.74
2023-11-04T12:31:10.428Z,958.73
2023-11-04T12:32:12.163Z,958.64
2023-11-04T12:33:14.010Z,958.59
2023-11-04T12:34:15.713Z,958.63
2023-11-04T12:35:17.402Z,958.63
2023-11-04T12:36:19.216Z,958.56
2023-11-04T12:37:20.837Z,958.58
2023-11-04T12:38:22.582Z,958.66
2023-11-04T12:39:24.337Z,958.6
2023-11-04T12:40:26.032Z,958.6
2023-11-04T12:41:27.764Z,958.65
2023-11-04T12:42:29.488Z,958.59
2023-11-04T12:43:31.225Z,958.61
2023-11-04T12:44:32.955Z,958.48
2023-11-04T12:45:34.691Z,958.5
2023-11-04T12:46:36.441Z,958.46
2023-11-04T12:47:38.261Z,958.42
2023-11-04T12:48:40.152Z,958.37
2023-11-04T12:49:41.636Z,958.38
2023-11-04T12:50:43.377Z,958.3
2023-11-04T12:51:45.125Z,958.25
2023-11-04T12:52:46.823Z,958.19
2023-11-04T12:53:48.558Z,958.13
2023-11-04T12:54:50.521Z,958.13
2023-11-04T12:55:52.140Z,958.09
2023-11-04T12:56:53.741Z,958.03
2023-11-04T12:57:55.516Z,958
2023-11-04T12:58:57.215Z,957.95
2023-11-04T12:59:58.978Z,957.89
2023-11-04T13:01:00.775Z,957.89
2023-11-04T13:02:02.419Z,957.95
2023-11-04T13:03:04.201Z,957.94
2023-11-04T13:04:05.973Z,957.91
2023-11-04T13:05:07.905Z,957.89
2023-11-04T13:06:09.436Z,957.93
2023-11-04T13:07:11.129Z,957.83
2023-11-04T13:08:12.828Z,957.74
2023-11-04T13:09:14.558Z,957.75
2023-11-04T13:10:16.368Z,957.77
2023-11-04T13:11:18.021Z,957.8
2023-11-04T13:12:19.752Z,957.71
2023-11-04T13:13:21.449Z,957.71
2023-11-04T13:14:23.407Z,957.69
2023-11-04T13:15:24.967Z,957.6
2023-11-04T13:16:27.674Z,957.62
2023-11-04T13:17:28.485Z,957.63
2023-11-04T13:18:30.175Z,957.56
2023-11-04T13:19:31.926Z,957.59
2023-11-04T13:20:33.651Z,957.52
2023-11-04T13:21:35.353Z,957.5
2023-11-04T13:22:37.074Z,957.5
2023-11-04T13:23:38.821Z,957.5
2023-11-04T13:24:40.581Z,957.5
2023-11-04T13:25:42.282Z,957.43
2023-11-04T13:26:44.001Z,957.43
2023-11-04T13:27:45.803Z,957.42
2023-11-04T13:28:47.480Z,957.38
2023-11-04T13:29:49.365Z,957.34
2023-11-04T13:30:50.984Z,957.24
2023-11-04T13:31:52.713Z,957.36
2023-11-04T13:32:54.519Z,957.36
2023-11-04T13:33:56.213Z,957.36
2023-11-04T13:34:58.054Z,957.38
2023-11-04T13:35:59.695Z,957.36